CDT,Max TemperatureF,Mean TemperatureF,Min TemperatureF,Max Dew PointF,MeanDew PointF,Min DewpointF,Max Humidity, Mean Humidity, Min Humidity, Max Sea Level PressureIn, Mean Sea Level PressureIn, Min Sea Level PressureIn, Max VisibilityMiles, Mean VisibilityMiles, Min VisibilityMiles, Max Wind SpeedMPH, Mean Wind SpeedMPH, Max Gust SpeedMPH,PrecipitationIn, CloudCover, Events, WindDirDegrees
2013-10-1,77,69,61,70,65,59,100,90,79,30.07,30.02,29.98,10,5,0,9,3,14,0.05,5,Fog-Rain,182
2013-10-2,82,76,69,72,68,64,97,83,69,30.08,30.05,30.02,10,8,1,20,5,24,0.08,4,Rain-Thunderstorm,213
2013-10-3,86,78,69,68,66,64,90,71,51,30.05,30.00,29.95,10,10,9,14,6,24,0.01,2,,175
2013-10-4,87,78,69,72,69,66,93,77,61,30.04,30.00,29.96,10,9,6,13,5,17,T,2,Rain,177
2013-10-5,83,76,68,72,69,66,93,80,67,30.01,29.94,29.85,10,6,0,23,5,32,4.19,7,Fog-Rain-Thunderstorm,202
2013-10-6,70,60,50,66,55,43,90,68,45,29.96,29.87,29.82,10,8,1,20,8,25,0.26,6,Rain-Thunderstorm,252
2013-10-7,69,58,47,49,46,44,93,69,45,30.15,30.04,29.92,10,10,9,14,5,22,0.00,0,,320
2013-10-8,73,59,44,51,45,43,93,64,35,30.21,30.16,30.11,10,6,0,17,4,24,0.00,0,Fog,77
2013-10-9,79,63,47,63,56,46,97,77,56,30.17,30.12,30.09,10,8,0,7,1,10,0.00,2,Fog,306
2013-10-10,80,68,55,64,57,54,100,77,54,30.16,30.10,30.02,10,3,0,7,0,13,0.00,4,Fog,262
2013-10-11,82,68,54,63,57,53,100,71,42,30.06,30.02,29.97,10,5,0,12,4,18,0.00,1,Fog,167
2013-10-12,76,67,58,65,61,57,93,81,69,30.14,30.05,29.99,10,9,1,9,3,12,T,4,,211
2013-10-13,78,64,50,63,53,45,93,63,33,30.30,30.23,30.14,10,7,0,14,6,17,0.00,1,Fog,7
2013-10-14,74,61,48,59,52,44,86,72,57,30.27,30.20,30.08,10,10,7,8,4,10,0.00,0,,75
2013-10-15,73,68,63,65,63,60,93,81,68,30.06,29.98,29.94,10,8,4,13,6,18,0.11,7,Rain,170
2013-10-16,68,58,48,64,54,46,93,75,56,30.02,29.97,29.93,10,9,4,14,4,24,T,6,,311
2013-10-17,65,57,48,50,47,45,86,69,52,30.01,29.99,29.96,10,10,6,13,4,18,0.09,5,Rain,271
2013-10-18,70,58,46,50,46,43,93,65,37,30.06,30.00,29.95,10,10,5,12,3,17,T,1,,224
2013-10-19,59,51,43,49,43,36,93,68,43,30.06,30.00,29.91,10,9,5,14,5,20,0.12,5,Rain,303
2013-10-20,67,54,41,42,40,38,89,63,37,30.08,30.03,29.98,10,10,10,15,6,22,0.00,0,,202
2013-10-21,68,58,47,50,45,41,83,66,48,30.05,30.00,29.96,10,10,10,15,6,23,T,5,Rain,241
2013-10-22,62,49,35,47,38,34,92,66,39,30.07,29.99,29.86,10,10,6,22,4,28,0.01,2,Rain,253
2013-10-23,54,47,40,42,35,30,86,64,41,30.14,30.07,29.92,10,10,10,20,7,28,0.00,5,,310
2013-10-24,53,42,31,40,34,24,82,59,35,30.41,30.24,30.13,10,10,10,21,5,25,0.00,5,,336
2013-10-25,54,42,29,30,27,24,85,59,32,30.54,30.44,30.31,10,10,7,10,2,14,0.00,0,,354
2013-10-26,61,49,36,44,35,27,86,67,47,30.29,30.16,30.06,10,10,10,16,6,23,0.00,5,,219
2013-10-27,67,51,35,48,39,33,92,63,34,30.13,30.08,30.03,10,9,6,7,1,20,0.00,3,,17
2013-10-28,72,60,47,52,49,46,93,70,47,30.24,30.15,30.06,10,8,2,7,1,10,0.00,4,,239
2013-10-29,66,56,46,60,51,44,93,86,78,30.27,30.21,30.10,7,2,0,14,4,16,0.20,5,Fog-Rain,104
2013-10-30,78,72,65,64,62,60,87,76,64,30.13,30.06,29.94,10,9,5,16,7,23,0.01,5,Rain,201
2013-10-31,71,64,56,65,61,55,90,82,73,29.92,29.65,29.47,10,8,1,35,13,47,0.93,7,Rain-Thunderstorm,206